createdAt,value
2023-01-20T00:02:54.164Z,22.30
2023-01-20T00:05:56.502Z,15.13
2023-01-20T00:09:02.108Z,16.10
2023-01-20T00:12:07.057Z,18.00
2023-01-20T00:15:11.348Z,14.52
2023-01-20T00:18:15.472Z,17.23
2023-01-20T00:21:18.144Z,20.35
2023-01-20T00:24:20.382Z,12.55
2023-01-20T00:27:22.378Z,16.25
2023-01-20T00:30:25.221Z,24.23
2023-01-20T00:33:30.430Z,20.40
2023-01-20T00:36:36.663Z,12.75
2023-01-20T00:39:41.291Z,11.18
2023-01-20T00:42:43.542Z,14.73
2023-01-20T00:45:45.676Z,12.02
2023-01-20T00:48:47.939Z,16.05
2023-01-20T00:51:51.223Z,20.15
2023-01-20T00:54:55.222Z,21.85
2023-01-20T00:57:57.990Z,17.33
2023-01-20T01:01:00.699Z,16.60
2023-01-20T01:04:04.284Z,12.35
2023-01-20T01:07:06.920Z,18.63
2023-01-20T01:10:10.733Z,21.70
2023-01-20T01:13:13.740Z,12.27
2023-01-20T01:16:16.662Z,25.55
2023-01-20T01:19:20.393Z,13.30
2023-01-20T01:22:22.782Z,23.17
2023-01-20T01:25:24.959Z,16.92
2023-01-20T01:28:27.259Z,19.13
2023-01-20T01:31:30.380Z,14.00
2023-01-20T01:34:32.678Z,12.05
2023-01-20T01:37:36.264Z,16.77
2023-01-20T01:40:38.409Z,23.50
2023-01-20T01:44:02.128Z,15.57
2023-01-20T01:47:06.712Z,13.68
2023-01-20T01:50:14.530Z,16.95
2023-01-20T01:53:18.743Z,16.60
2023-01-20T01:56:23.059Z,33.45
2023-01-20T01:59:25.353Z,15.77
2023-01-20T02:02:28.326Z,24.65
2023-01-20T02:05:34.228Z,21.85
2023-01-20T02:08:37.281Z,15.45
2023-01-20T02:11:45.549Z,28.25
2023-01-20T02:14:55.501Z,18.65
2023-01-20T02:18:30.028Z,18.27
2023-01-20T02:22:17.610Z,29.58
2023-01-20T02:25:44.187Z,24.30
2023-01-20T02:28:55.170Z,22.85
2023-01-20T02:32:11.902Z,24.98
2023-01-20T02:35:43.039Z,24.92
2023-01-20T02:39:01.268Z,18.50
2023-01-20T02:42:16.075Z,23.90
2023-01-20T02:45:32.782Z,19.88
2023-01-20T02:48:44.512Z,22.63
2023-01-20T02:52:10.995Z,25.05
2023-01-20T02:55:58.049Z,33.70
2023-01-20T02:59:05.742Z,23.90
2023-01-20T03:02:13.996Z,28.83
2023-01-20T03:05:25.865Z,24.13
2023-01-20T03:08:31.942Z,24.20
2023-01-20T03:11:40.554Z,20.92
2023-01-20T03:14:42.939Z,21.67
2023-01-20T03:17:46.261Z,22.67
2023-01-20T03:20:48.420Z,20.92
2023-01-20T03:23:55.979Z,18.33
2023-01-20T03:27:00.541Z,11.05
2023-01-20T03:30:02.776Z,20.98
2023-01-20T03:33:07.380Z,19.45
2023-01-20T03:36:10.261Z,16.73
2023-01-20T03:39:14.136Z,12.95
2023-01-20T03:42:29.069Z,21.27
2023-01-20T03:45:56.746Z,19.80
2023-01-20T03:49:11.990Z,11.23
2023-01-20T03:52:46.990Z,13.95
2023-01-20T03:56:02.623Z,13.98
2023-01-20T03:59:07.767Z,25.10
2023-01-20T04:02:12.624Z,14.93
2023-01-20T04:05:14.993Z,17.42
2023-01-20T04:08:22.841Z,11.25
2023-01-20T04:11:27.326Z,13.15
2023-01-20T04:14:29.382Z,29.10
2023-01-20T04:17:31.908Z,13.88
2023-01-20T04:20:34.273Z,19.88
2023-01-20T04:23:43.424Z,17.27
2023-01-20T04:26:45.638Z,15.70
2023-01-20T04:29:50.039Z,15.70
2023-01-20T04:32:52.178Z,12.98
2023-01-20T04:35:54.557Z,17.98
2023-01-20T04:38:57.285Z,19.05
2023-01-20T04:41:59.384Z,13.30
2023-01-20T04:45:01.450Z,18.08
2023-01-20T04:48:09.158Z,17.73
2023-01-20T04:51:12.892Z,11.02
2023-01-20T04:54:15.044Z,12.27
2023-01-20T04:57:17.198Z,6.90
2023-01-20T05:00:20.885Z,17.38
2023-01-20T05:03:23.119Z,23.48
2023-01-20T05:06:27.171Z,13.57
2023-01-20T05:09:30.226Z,12.65
2023-01-20T05:12:33.279Z,10.75
2023-01-20T05:15:39.511Z,11.45
2023-01-20T05:18:41.706Z,14.73
2023-01-20T05:21:46.104Z,17.20
2023-01-20T05:24:48.292Z,12.60
2023-01-20T05:27:50.686Z,16.02
2023-01-20T05:30:54.221Z,12.93
2023-01-20T05:33:58.999Z,8.43
2023-01-20T05:37:01.978Z,12.18
2023-01-20T05:40:05.090Z,6.53
2023-01-20T05:43:07.285Z,17.88
2023-01-20T05:46:12.253Z,10.73
2023-01-20T05:49:15.694Z,11.48
2023-01-20T05:52:17.625Z,10.57
2023-01-20T05:55:20.434Z,13.93
2023-01-20T05:58:23.052Z,6.55
2023-01-20T06:01:25.322Z,8.00
2023-01-20T06:04:29.825Z,10.25
2023-01-20T06:07:34.358Z,17.70
2023-01-20T06:10:36.527Z,15.45
2023-01-20T06:13:39.875Z,16.38
2023-01-20T06:16:42.987Z,13.27
2023-01-20T06:19:48.534Z,17.45
2023-01-20T06:22:55.504Z,12.45
2023-01-20T06:26:06.644Z,10.38
2023-01-20T06:29:09.881Z,17.95
2023-01-20T06:32:11.914Z,13.98
2023-01-20T06:35:14.531Z,10.43
2023-01-20T06:38:16.757Z,7.38
2023-01-20T06:41:21.311Z,13.80
2023-01-20T06:44:23.466Z,8.52
2023-01-20T06:47:25.519Z,14.45
2023-01-20T06:50:27.603Z,12.77
2023-01-20T06:53:31.159Z,9.73
2023-01-20T06:56:33.245Z,9.40
2023-01-20T06:59:35.565Z,14.63
2023-01-20T07:02:37.989Z,10.35
2023-01-20T07:05:40.135Z,15.05
2023-01-20T07:08:44.908Z,8.23
2023-01-20T07:11:48.004Z,9.48
2023-01-20T07:14:50.205Z,12.20
2023-01-20T07:17:52.387Z,10.15
2023-01-20T07:20:56.317Z,11.13
2023-01-20T07:24:01.986Z,14.07
2023-01-20T07:27:04.236Z,9.25
2023-01-20T07:30:07.107Z,19.42
2023-01-20T07:33:09.174Z,14.70
2023-01-20T07:36:12.848Z,17.77
2023-01-20T07:39:15.716Z,15.48
2023-01-20T07:42:17.854Z,20.60
2023-01-20T07:45:19.988Z,17.33
2023-01-20T07:48:22.411Z,7.18
2023-01-20T07:51:24.611Z,15.25
2023-01-20T07:54:26.596Z,18.52
2023-01-20T07:57:30.383Z,18.23
2023-01-20T08:00:32.351Z,14.80
2023-01-20T08:03:35.314Z,13.68
2023-01-20T08:06:37.561Z,13.57
2023-01-20T08:09:42.015Z,13.90
2023-01-20T08:12:44.049Z,11.63
2023-01-20T08:15:46.074Z,28.25
2023-01-20T08:18:51.510Z,18.88
2023-01-20T08:21:53.638Z,18.77
2023-01-20T08:24:55.811Z,25.08
2023-01-20T08:27:58.102Z,18.02
2023-01-20T08:31:15.960Z,16.58
2023-01-20T08:34:19.153Z,27.65
2023-01-20T08:37:21.441Z,19.27
2023-01-20T08:40:23.546Z,11.85
2023-01-20T08:43:25.563Z,15.35
2023-01-20T08:46:28.503Z,19.45
2023-01-20T08:49:30.747Z,12.13
2023-01-20T08:52:33.255Z,14.35
2023-01-20T08:55:35.528Z,14.25
2023-01-20T08:58:38.358Z,7.65
2023-01-20T09:01:42.315Z,8.77
2023-01-20T09:04:44.520Z,11.50
2023-01-20T09:07:46.605Z,11.70
2023-01-20T09:10:48.620Z,19.73
2023-01-20T09:13:51.430Z,16.33
2023-01-20T09:16:53.756Z,15.57
2023-01-20T09:19:56.335Z,17.70
2023-01-20T09:23:03.175Z,6.13
2023-01-20T09:26:07.382Z,9.60
2023-01-20T09:29:14.744Z,9.30
2023-01-20T09:32:16.896Z,16.55
2023-01-20T09:35:19.320Z,8.20
2023-01-20T09:38:41.576Z,11.18
2023-01-20T09:42:06.862Z,18.75
2023-01-20T09:45:22.953Z,14.77
2023-01-20T09:49:02.638Z,12.60
2023-01-20T09:52:37.873Z,14.40
2023-01-20T09:55:49.554Z,8.55
2023-01-20T09:59:01.031Z,9.35
2023-01-20T10:02:12.411Z,7.97
2023-01-20T10:05:21.180Z,10.75
2023-01-20T10:09:04.945Z,12.98
2023-01-20T10:12:07.830Z,10.05
2023-01-20T10:15:36.830Z,12.45
2023-01-20T10:18:49.655Z,17.85
2023-01-20T10:22:02.900Z,11.00
2023-01-20T10:25:14.523Z,9.02
2023-01-20T10:28:27.310Z,11.32
2023-01-20T10:31:35.354Z,7.50
2023-01-20T10:34:58.156Z,6.68
2023-01-20T10:38:05.265Z,14.90
2023-01-20T10:41:19.611Z,11.60
2023-01-20T10:44:24.682Z,12.57
2023-01-20T10:47:47.952Z,12.23
2023-01-20T10:51:09.181Z,13.55
2023-01-20T10:54:36.340Z,10.50
2023-01-20T10:57:39.215Z,8.27
2023-01-20T11:00:42.475Z,8.75
2023-01-20T11:03:47.283Z,8.13
2023-01-20T11:06:55.750Z,11.23
2023-01-20T11:10:00.930Z,7.60
2023-01-20T11:13:04.268Z,6.07
2023-01-20T11:16:40.948Z,8.80
2023-01-20T11:19:48.037Z,7.07
2023-01-20T11:22:50.762Z,11.07
2023-01-20T11:25:57.699Z,6.55
2023-01-20T11:29:24.327Z,7.45
2023-01-20T11:32:40.158Z,8.77
2023-01-20T11:36:00.731Z,6.88
2023-01-20T11:39:08.742Z,12.80
2023-01-20T11:42:18.013Z,5.78
2023-01-20T11:45:24.756Z,11.55
2023-01-20T11:48:26.874Z,8.90
2023-01-20T11:51:28.954Z,12.52
2023-01-20T11:54:31.202Z,8.95
2023-01-20T11:57:33.509Z,10.15
2023-01-20T12:00:41.175Z,18.15
2023-01-20T12:03:56.526Z,8.17
2023-01-20T12:07:31.847Z,8.52
2023-01-20T12:10:37.414Z,15.27
2023-01-20T12:14:03.926Z,14.25
2023-01-20T12:17:21.161Z,13.80
2023-01-20T12:20:54.802Z,12.48
2023-01-20T12:24:09.663Z,19.08
2023-01-20T12:27:21.271Z,14.68
2023-01-20T12:30:52.122Z,10.18
2023-01-20T12:34:05.354Z,10.32
2023-01-20T12:37:38.134Z,10.50
2023-01-20T12:40:49.118Z,12.68
2023-01-20T12:44:13.666Z,8.57
2023-01-20T12:47:31.228Z,12.32
2023-01-20T12:51:14.362Z,10.02
2023-01-20T12:54:47.339Z,11.63
2023-01-20T12:58:21.237Z,8.77
2023-01-20T13:01:38.247Z,8.27
2023-01-20T13:04:49.220Z,9.15
2023-01-20T13:08:20.737Z,7.18
2023-01-20T13:11:59.525Z,7.00
2023-01-20T13:15:43.349Z,15.38
2023-01-20T13:18:54.697Z,11.07
2023-01-20T13:22:07.913Z,4.15
2023-01-20T13:25:15.551Z,5.75
2023-01-20T13:28:19.936Z,10.18
2023-01-20T13:31:42.305Z,9.32
2023-01-20T13:34:44.513Z,6.22
2023-01-20T13:37:57.808Z,9.80
2023-01-20T13:41:03.600Z,12.85
2023-01-20T13:44:45.939Z,12.85
2023-01-20T13:48:21.843Z,12.02
2023-01-20T13:51:26.834Z,15.57
2023-01-20T13:54:37.223Z,10.90
2023-01-20T13:57:39.361Z,10.07
2023-01-20T14:00:41.632Z,11.40
2023-01-20T14:03:44.160Z,11.38
2023-01-20T14:06:53.781Z,11.57
2023-01-20T14:10:02.174Z,26.50
2023-01-20T14:13:10.632Z,16.95
2023-01-20T14:16:26.499Z,10.43
2023-01-20T14:19:35.511Z,12.68
2023-01-20T14:22:37.745Z,8.48
2023-01-20T14:25:39.802Z,13.13
2023-01-20T14:28:46.097Z,12.95
2023-01-20T14:31:48.348Z,11.70
2023-01-20T14:34:52.407Z,22.00
2023-01-20T14:37:59.159Z,23.75
2023-01-20T14:41:01.469Z,16.13
2023-01-20T14:44:04.181Z,21.67
2023-01-20T14:47:07.855Z,27.65
2023-01-20T14:50:16.082Z,18.40
2023-01-20T14:53:22.229Z,33.70
2023-01-20T14:56:25.248Z,25.08
2023-01-20T14:59:28.098Z,29.38
2023-01-20T15:02:35.721Z,25.10
2023-01-20T15:05:42.113Z,24.60
2023-01-20T15:08:57.006Z,19.70
2023-01-20T15:16:39.761Z,29.05
2023-01-20T15:19:47.740Z,24.40
2023-01-20T15:22:51.191Z,17.45
2023-01-20T15:25:54.585Z,20.67
2023-01-20T15:29:01.453Z,15.02
2023-01-20T15:32:13.767Z,22.92
2023-01-20T15:44:14.526Z,26.73
2023-01-20T15:51:50.649Z,14.95
2023-01-20T15:54:53.568Z,18.15
2023-01-20T15:57:56.013Z,16.38
2023-01-20T16:01:01.088Z,19.77
2023-01-20T16:04:03.849Z,19.15
2023-01-20T16:07:07.829Z,21.17
2023-01-20T16:10:18.552Z,21.65
2023-01-20T16:13:20.991Z,19.88
2023-01-20T16:16:26.840Z,21.33
2023-01-20T16:19:31.208Z,26.00
2023-01-20T16:22:34.576Z,23.48
2023-01-20T16:25:37.807Z,23.08
2023-01-20T16:28:39.809Z,30.20
2023-01-20T16:31:42.243Z,19.50
2023-01-20T16:34:44.689Z,20.13
2023-01-20T16:37:48.026Z,21.30
2023-01-20T16:40:51.528Z,26.75
2023-01-20T16:47:17.532Z,21.75
2023-01-20T16:50:23.619Z,24.63
2023-01-20T16:53:25.726Z,25.25
2023-01-20T16:56:30.284Z,31.00
2023-01-20T16:59:32.551Z,23.75
2023-01-20T17:02:34.643Z,27.38
2023-01-20T17:05:39.518Z,24.63
2023-01-20T17:08:46.992Z,27.73
2023-01-20T17:11:49.303Z,28.42
2023-01-20T17:14:52.142Z,36.70
2023-01-20T17:18:01.180Z,24.45
2023-01-20T17:21:07.992Z,20.85
2023-01-20T17:24:13.940Z,28.35
2023-01-20T17:27:19.609Z,34.10
2023-01-20T17:30:23.408Z,26.02
2023-01-20T17:33:26.752Z,28.05
2023-01-20T17:36:35.314Z,20.65
2023-01-20T17:39:37.668Z,24.85
2023-01-20T17:42:40.042Z,23.77
2023-01-20T17:45:44.220Z,19.88
2023-01-20T17:48:46.996Z,29.73
2023-01-20T17:51:54.542Z,22.67
2023-01-20T17:54:58.300Z,27.50
2023-01-20T17:58:00.432Z,20.95
2023-01-20T18:01:13.820Z,21.02
2023-01-20T18:04:16.495Z,56.28
2023-01-20T18:07:18.677Z,25.55
2023-01-20T18:10:20.840Z,42.05
2023-01-20T18:13:23.252Z,37.20
2023-01-20T18:16:31.710Z,29.63
2023-01-20T18:19:33.786Z,28.50
2023-01-20T18:22:36.198Z,37.20
2023-01-20T18:25:38.393Z,30.02
2023-01-20T18:28:41.748Z,41.03
2023-01-20T18:31:47.036Z,37.55
2023-01-20T18:34:49.731Z,29.55
2023-01-20T18:37:52.812Z,36.53
2023-01-20T18:40:54.886Z,34.22
2023-01-20T18:43:57.693Z,29.23
2023-01-20T18:46:59.837Z,38.65
2023-01-20T18:50:02.041Z,29.88
2023-01-20T18:53:04.460Z,30.70
2023-01-20T18:56:10.658Z,40.47
2023-01-20T18:59:13.673Z,29.45
2023-01-20T19:02:18.942Z,29.38
2023-01-20T19:05:23.739Z,33.85
2023-01-20T19:08:25.924Z,31.35
2023-01-20T19:11:34.351Z,25.20
2023-01-20T19:14:40.616Z,29.55
2023-01-20T19:17:43.012Z,27.80
2023-01-20T19:20:45.234Z,29.08
2023-01-20T19:24:19.242Z,26.58
2023-01-20T19:27:24.105Z,26.42
2023-01-20T19:30:26.537Z,31.98
2023-01-20T19:33:30.254Z,25.63
2023-01-20T19:36:34.716Z,27.38
2023-01-20T19:39:36.843Z,27.05
2023-01-20T19:42:38.904Z,25.88
2023-01-20T19:45:45.848Z,34.20
2023-01-20T19:48:58.051Z,31.08
2023-01-20T19:52:00.875Z,38.13
2023-01-20T19:55:03.119Z,31.98
2023-01-20T19:58:06.429Z,32.17
2023-01-20T20:01:20.411Z,28.98
2023-01-20T20:04:24.297Z,26.08
2023-01-20T20:07:26.545Z,27.70
2023-01-20T20:10:29.699Z,27.15
2023-01-20T20:13:31.747Z,30.10
2023-01-20T20:16:35.794Z,26.27
2023-01-20T20:19:37.955Z,37.30
2023-01-20T20:22:41.379Z,40.63
2023-01-20T20:25:48.667Z,41.17
2023-01-20T20:28:53.576Z,43.38
2023-01-20T20:31:55.945Z,28.60
2023-01-20T20:34:59.799Z,39.80
2023-01-20T20:38:02.151Z,33.88
2023-01-20T20:41:08.108Z,34.58
2023-01-20T20:44:11.272Z,42.90
2023-01-20T20:47:13.494Z,26.30
2023-01-20T20:50:16.545Z,30.92
2023-01-20T20:53:19.025Z,27.83
2023-01-20T20:56:23.414Z,36.65
2023-01-20T20:59:27.391Z,30.65
2023-01-20T21:02:30.702Z,38.15
2023-01-20T21:05:34.064Z,35.00
2023-01-20T21:08:40.242Z,27.73
2023-01-20T21:11:43.753Z,28.60
2023-01-20T21:14:46.204Z,39.72
2023-01-20T21:17:50.665Z,31.15
2023-01-20T21:21:01.987Z,33.85
2023-01-20T21:24:05.079Z,45.67
2023-01-20T21:27:07.196Z,37.55
2023-01-20T21:30:10.716Z,37.38
2023-01-20T21:33:18.435Z,34.67
2023-01-20T21:36:21.616Z,40.13
2023-01-20T21:39:23.975Z,33.67
2023-01-20T21:42:27.637Z,33.22
2023-01-20T21:45:29.752Z,44.13
2023-01-20T21:48:50.769Z,37.33
2023-01-20T21:52:11.583Z,30.40
2023-01-20T21:55:19.080Z,41.10
2023-01-20T21:58:22.129Z,41.25
2023-01-20T22:01:24.671Z,37.50
2023-01-20T22:04:26.868Z,34.20
2023-01-20T22:07:29.065Z,34.97
2023-01-20T22:10:32.756Z,40.70
2023-01-20T22:13:36.192Z,40.13
2023-01-20T22:16:38.588Z,37.80
2023-01-20T22:19:40.872Z,31.42
2023-01-20T22:22:43.926Z,41.17
2023-01-20T22:25:47.154Z,30.35
2023-01-20T22:28:49.304Z,35.38
2023-01-20T22:31:54.283Z,28.50
2023-01-20T22:34:56.405Z,22.98
2023-01-20T22:38:01.230Z,21.73
2023-01-20T22:41:05.571Z,17.75
2023-01-20T22:44:08.761Z,13.88
2023-01-20T22:47:11.115Z,21.27
2023-01-20T22:50:13.363Z,12.93
2023-01-20T22:53:15.400Z,12.60
2023-01-20T22:56:20.774Z,15.48
2023-01-20T22:59:25.305Z,18.40
2023-01-20T23:02:27.514Z,13.50
2023-01-20T23:05:31.320Z,11.63
2023-01-20T23:08:34.033Z,11.70
2023-01-20T23:11:38.534Z,14.23
2023-01-20T23:14:58.946Z,14.15
2023-01-20T23:18:02.987Z,16.75
2023-01-20T23:21:08.135Z,15.27
2023-01-20T23:24:10.571Z,19.55
2023-01-20T23:27:12.829Z,17.45
2023-01-20T23:30:15.307Z,15.40
2023-01-20T23:33:19.678Z,16.75
2023-01-20T23:36:24.468Z,15.38
2023-01-20T23:39:26.590Z,14.68
2023-01-20T23:42:28.541Z,13.05
2023-01-20T23:45:30.690Z,15.60
2023-01-20T23:48:33.834Z,20.40
2023-01-20T23:51:37.288Z,19.25
2023-01-20T23:54:41.640Z,13.25
2023-01-20T23:57:43.787Z,12.07
